sensor_id;sensor_type;location;lat;lon;timestamp;P1;durP1;ratioP1;P2;durP2;ratioP2
16242;SDS011;11719;51.052;6.982;2023-08-06T00:00:39;1.87;;;1.20;;
16242;SDS011;11719;51.052;6.982;2023-08-06T00:03:05;1.37;;;0.90;;
16242;SDS011;11719;51.052;6.982;2023-08-06T00:05:31;1.60;;;1.20;;
16242;SDS011;11719;51.052;6.982;2023-08-06T00:07:58;1.20;;;1.10;;
16242;SDS011;11719;51.052;6.982;2023-08-06T00:10:23;1.80;;;1.13;;
16242;SDS011;11719;51.052;6.982;2023-08-06T00:12:49;1.20;;;0.83;;
16242;SDS011;11719;51.052;6.982;2023-08-06T00:15:15;1.60;;;1.10;;
16242;SDS011;11719;51.052;6.982;2023-08-06T00:17:41;2.40;;;1.53;;
16242;SDS011;11719;51.052;6.982;2023-08-06T00:20:07;2.90;;;1.50;;
16242;SDS011;11719;51.052;6.982;2023-08-06T00:22:33;1.37;;;1.07;;
16242;SDS011;11719;51.052;6.982;2023-08-06T00:25:01;1.77;;;1.10;;
16242;SDS011;11719;51.052;6.982;2023-08-06T00:27:28;1.70;;;1.20;;
16242;SDS011;11719;51.052;6.982;2023-08-06T00:29:54;1.47;;;1.30;;
16242;SDS011;11719;51.052;6.982;2023-08-06T00:32:20;1.47;;;1.20;;
16242;SDS011;11719;51.052;6.982;2023-08-06T00:34:46;1.87;;;1.20;;
16242;SDS011;11719;51.052;6.982;2023-08-06T00:37:14;1.57;;;1.30;;
16242;SDS011;11719;51.052;6.982;2023-08-06T00:39:43;1.87;;;1.27;;
16242;SDS011;11719;51.052;6.982;2023-08-06T00:42:09;1.50;;;1.07;;
16242;SDS011;11719;51.052;6.982;2023-08-06T00:44:37;1.83;;;1.20;;
16242;SDS011;11719;51.052;6.982;2023-08-06T00:47:04;1.80;;;1.20;;
16242;SDS011;11719;51.052;6.982;2023-08-06T00:49:31;1.97;;;1.40;;
16242;SDS011;11719;51.052;6.982;2023-08-06T00:51:57;2.00;;;1.47;;
16242;SDS011;11719;51.052;6.982;2023-08-06T00:54:23;2.00;;;1.10;;
16242;SDS011;11719;51.052;6.982;2023-08-06T00:56:50;1.13;;;1.00;;
16242;SDS011;11719;51.052;6.982;2023-08-06T00:59:16;1.43;;;0.83;;
16242;SDS011;11719;51.052;6.982;2023-08-06T01:01:41;3.63;;;1.03;;
16242;SDS011;11719;51.052;6.982;2023-08-06T01:04:08;1.60;;;1.03;;
16242;SDS011;11719;51.052;6.982;2023-08-06T01:15:07;1.10;;;1.00;;
16242;SDS011;11719;51.052;6.982;2023-08-06T01:17:42;1.27;;;0.90;;
16242;SDS011;11719;51.052;6.982;2023-08-06T01:20:10;0.93;;;0.73;;
16242;SDS011;11719;51.052;6.982;2023-08-06T01:22:36;1.10;;;1.00;;
16242;SDS011;11719;51.052;6.982;2023-08-06T01:25:01;1.27;;;1.10;;
16242;SDS011;11719;51.052;6.982;2023-08-06T01:27:33;1.60;;;0.90;;
16242;SDS011;11719;51.052;6.982;2023-08-06T01:30:17;2.40;;;1.00;;
16242;SDS011;11719;51.052;6.982;2023-08-06T01:32:53;1.60;;;0.90;;
16242;SDS011;11719;51.052;6.982;2023-08-06T01:35:23;1.53;;;1.07;;
16242;SDS011;11719;51.052;6.982;2023-08-06T01:37:52;1.53;;;1.10;;
16242;SDS011;11719;51.052;6.982;2023-08-06T01:40:18;3.17;;;1.33;;
16242;SDS011;11719;51.052;6.982;2023-08-06T01:42:43;2.27;;;1.20;;
16242;SDS011;11719;51.052;6.982;2023-08-06T01:45:09;1.37;;;1.10;;
16242;SDS011;11719;51.052;6.982;2023-08-06T01:47:35;1.27;;;0.93;;
16242;SDS011;11719;51.052;6.982;2023-08-06T01:50:01;1.63;;;0.97;;
16242;SDS011;11719;51.052;6.982;2023-08-06T01:52:28;1.37;;;0.93;;
16242;SDS011;11719;51.052;6.982;2023-08-06T01:54:54;1.83;;;1.43;;
16242;SDS011;11719;51.052;6.982;2023-08-06T01:57:20;0.87;;;0.80;;
16242;SDS011;11719;51.052;6.982;2023-08-06T01:59:46;1.80;;;1.10;;
16242;SDS011;11719;51.052;6.982;2023-08-06T02:02:12;1.00;;;0.87;;
16242;SDS011;11719;51.052;6.982;2023-08-06T02:04:37;1.53;;;1.10;;
16242;SDS011;11719;51.052;6.982;2023-08-06T02:07:03;0.83;;;0.80;;
16242;SDS011;11719;51.052;6.982;2023-08-06T02:09:29;1.13;;;1.03;;
16242;SDS011;11719;51.052;6.982;2023-08-06T02:11:55;1.10;;;1.00;;
16242;SDS011;11719;51.052;6.982;2023-08-06T02:14:21;1.77;;;1.00;;
16242;SDS011;11719;51.052;6.982;2023-08-06T02:16:46;1.27;;;0.87;;
16242;SDS011;11719;51.052;6.982;2023-08-06T02:19:12;1.73;;;1.23;;
16242;SDS011;11719;51.052;6.982;2023-08-06T02:21:38;1.27;;;0.97;;
16242;SDS011;11719;51.052;6.982;2023-08-06T02:24:04;1.67;;;0.97;;
16242;SDS011;11719;51.052;6.982;2023-08-06T02:26:29;1.23;;;1.07;;
16242;SDS011;11719;51.052;6.982;2023-08-06T02:28:55;1.60;;;1.20;;
16242;SDS011;11719;51.052;6.982;2023-08-06T02:31:21;1.27;;;1.00;;
16242;SDS011;11719;51.052;6.982;2023-08-06T02:33:47;2.07;;;0.90;;
16242;SDS011;11719;51.052;6.982;2023-08-06T02:36:13;0.90;;;0.63;;
16242;SDS011;11719;51.052;6.982;2023-08-06T02:38:38;0.90;;;0.73;;
16242;SDS011;11719;51.052;6.982;2023-08-06T02:41:04;1.50;;;1.20;;
16242;SDS011;11719;51.052;6.982;2023-08-06T02:43:30;1.93;;;1.00;;
16242;SDS011;11719;51.052;6.982;2023-08-06T02:45:57;1.17;;;0.90;;
16242;SDS011;11719;51.052;6.982;2023-08-06T02:48:26;0.73;;;0.70;;
16242;SDS011;11719;51.052;6.982;2023-08-06T02:50:52;1.07;;;0.97;;
16242;SDS011;11719;51.052;6.982;2023-08-06T02:53:18;0.97;;;0.80;;
16242;SDS011;11719;51.052;6.982;2023-08-06T02:55:47;1.20;;;1.10;;
16242;SDS011;11719;51.052;6.982;2023-08-06T02:58:16;2.17;;;0.80;;
16242;SDS011;11719;51.052;6.982;2023-08-06T03:00:43;0.93;;;0.87;;
16242;SDS011;11719;51.052;6.982;2023-08-06T03:03:09;1.17;;;0.90;;
16242;SDS011;11719;51.052;6.982;2023-08-06T03:05:35;0.83;;;0.70;;
16242;SDS011;11719;51.052;6.982;2023-08-06T03:08:01;1.70;;;0.90;;
16242;SDS011;11719;51.052;6.982;2023-08-06T03:10:26;1.07;;;0.87;;
16242;SDS011;11719;51.052;6.982;2023-08-06T03:12:52;0.97;;;0.87;;
16242;SDS011;11719;51.052;6.982;2023-08-06T03:15:18;1.40;;;1.10;;
16242;SDS011;11719;51.052;6.982;2023-08-06T03:17:43;1.20;;;0.93;;
16242;SDS011;11719;51.052;6.982;2023-08-06T03:20:09;2.03;;;0.90;;
16242;SDS011;11719;51.052;6.982;2023-08-06T03:22:35;1.13;;;0.80;;
16242;SDS011;11719;51.052;6.982;2023-08-06T03:25:01;1.10;;;0.80;;
16242;SDS011;11719;51.052;6.982;2023-08-06T03:27:28;0.80;;;0.73;;
16242;SDS011;11719;51.052;6.982;2023-08-06T03:29:53;1.07;;;0.97;;
16242;SDS011;11719;51.052;6.982;2023-08-06T03:32:19;1.33;;;0.87;;
16242;SDS011;11719;51.052;6.982;2023-08-06T03:34:45;1.00;;;0.90;;
16242;SDS011;11719;51.052;6.982;2023-08-06T03:37:11;0.90;;;0.90;;
16242;SDS011;11719;51.052;6.982;2023-08-06T03:39:37;1.17;;;0.90;;
16242;SDS011;11719;51.052;6.982;2023-08-06T03:42:03;1.23;;;0.90;;
16242;SDS011;11719;51.052;6.982;2023-08-06T03:44:29;1.30;;;0.97;;
16242;SDS011;11719;51.052;6.982;2023-08-06T03:46:55;1.40;;;1.07;;
16242;SDS011;11719;51.052;6.982;2023-08-06T03:49:21;0.90;;;0.67;;
16242;SDS011;11719;51.052;6.982;2023-08-06T03:51:47;1.37;;;1.10;;
16242;SDS011;11719;51.052;6.982;2023-08-06T03:54:13;1.70;;;0.87;;
16242;SDS011;11719;51.052;6.982;2023-08-06T03:56:38;1.13;;;0.80;;
16242;SDS011;11719;51.052;6.982;2023-08-06T03:59:04;1.30;;;1.00;;
16242;SDS011;11719;51.052;6.982;2023-08-06T04:01:30;1.73;;;0.90;;
16242;SDS011;11719;51.052;6.982;2023-08-06T04:03:55;1.70;;;1.00;;
16242;SDS011;11719;51.052;6.982;2023-08-06T04:06:21;1.00;;;0.70;;
16242;SDS011;11719;51.052;6.982;2023-08-06T04:08:47;1.67;;;1.10;;
16242;SDS011;11719;51.052;6.982;2023-08-06T04:11:13;1.33;;;1.00;;
16242;SDS011;11719;51.052;6.982;2023-08-06T04:13:41;1.87;;;1.20;;
16242;SDS011;11719;51.052;6.982;2023-08-06T04:16:09;1.77;;;1.07;;
16242;SDS011;11719;51.052;6.982;2023-08-06T04:18:34;1.47;;;1.20;;
16242;SDS011;11719;51.052;6.982;2023-08-06T04:21:01;1.13;;;0.87;;
16242;SDS011;11719;51.052;6.982;2023-08-06T04:23:27;1.60;;;1.20;;
16242;SDS011;11719;51.052;6.982;2023-08-06T04:25:56;1.10;;;0.90;;
16242;SDS011;11719;51.052;6.982;2023-08-06T04:28:22;2.20;;;1.10;;
16242;SDS011;11719;51.052;6.982;2023-08-06T04:30:48;1.60;;;0.90;;
16242;SDS011;11719;51.052;6.982;2023-08-06T04:33:14;1.63;;;0.90;;
16242;SDS011;11719;51.052;6.982;2023-08-06T04:35:40;2.10;;;0.93;;
16242;SDS011;11719;51.052;6.982;2023-08-06T04:38:05;3.80;;;1.20;;
16242;SDS011;11719;51.052;6.982;2023-08-06T04:40:33;1.53;;;0.80;;
16242;SDS011;11719;51.052;6.982;2023-08-06T04:43:01;1.50;;;1.00;;
16242;SDS011;11719;51.052;6.982;2023-08-06T04:45:26;1.13;;;1.00;;
16242;SDS011;11719;51.052;6.982;2023-08-06T04:47:52;0.93;;;0.83;;
16242;SDS011;11719;51.052;6.982;2023-08-06T04:50:19;1.43;;;0.90;;
16242;SDS011;11719;51.052;6.982;2023-08-06T04:52:45;1.37;;;1.00;;
16242;SDS011;11719;51.052;6.982;2023-08-06T04:55:11;1.20;;;0.80;;
16242;SDS011;11719;51.052;6.982;2023-08-06T04:57:37;1.00;;;0.90;;
16242;SDS011;11719;51.052;6.982;2023-08-06T05:00:03;0.70;;;0.70;;
16242;SDS011;11719;51.052;6.982;2023-08-06T05:02:30;2.20;;;0.80;;
16242;SDS011;11719;51.052;6.982;2023-08-06T05:04:57;1.30;;;0.57;;
16242;SDS011;11719;51.052;6.982;2023-08-06T05:07:23;1.13;;;0.80;;
16242;SDS011;11719;51.052;6.982;2023-08-06T05:09:49;2.00;;;0.90;;
16242;SDS011;11719;51.052;6.982;2023-08-06T05:12:15;5.07;;;0.90;;
16242;SDS011;11719;51.052;6.982;2023-08-06T05:14:41;1.60;;;1.03;;
16242;SDS011;11719;51.052;6.982;2023-08-06T05:17:06;0.80;;;0.60;;
16242;SDS011;11719;51.052;6.982;2023-08-06T05:19:32;1.23;;;0.90;;
16242;SDS011;11719;51.052;6.982;2023-08-06T05:21:58;1.63;;;0.80;;
16242;SDS011;11719;51.052;6.982;2023-08-06T05:24:23;1.40;;;0.90;;
16242;SDS011;11719;51.052;6.982;2023-08-06T05:26:49;1.60;;;1.10;;
16242;SDS011;11719;51.052;6.982;2023-08-06T05:29:16;2.17;;;0.87;;
16242;SDS011;11719;51.052;6.982;2023-08-06T05:31:41;1.37;;;0.93;;
16242;SDS011;11719;51.052;6.982;2023-08-06T05:34:07;1.10;;;0.90;;
16242;SDS011;11719;51.052;6.982;2023-08-06T05:36:33;0.73;;;0.50;;
16242;SDS011;11719;51.052;6.982;2023-08-06T05:38:59;1.57;;;1.07;;
16242;SDS011;11719;51.052;6.982;2023-08-06T05:41:25;0.97;;;0.70;;
16242;SDS011;11719;51.052;6.982;2023-08-06T05:43:50;0.80;;;0.60;;
16242;SDS011;11719;51.052;6.982;2023-08-06T05:46:16;1.40;;;1.00;;
16242;SDS011;11719;51.052;6.982;2023-08-06T05:48:42;1.00;;;0.60;;
16242;SDS011;11719;51.052;6.982;2023-08-06T05:51:07;0.70;;;0.70;;
16242;SDS011;11719;51.052;6.982;2023-08-06T05:53:33;1.17;;;0.90;;
16242;SDS011;11719;51.052;6.982;2023-08-06T05:55:59;1.03;;;0.70;;
16242;SDS011;11719;51.052;6.982;2023-08-06T05:58:25;2.07;;;0.70;;
16242;SDS011;11719;51.052;6.982;2023-08-06T06:00:54;1.20;;;0.70;;
16242;SDS011;11719;51.052;6.982;2023-08-06T06:03:19;1.67;;;1.10;;
16242;SDS011;11719;51.052;6.982;2023-08-06T06:05:45;0.93;;;0.60;;
16242;SDS011;11719;51.052;6.982;2023-08-06T06:08:11;1.13;;;0.87;;
16242;SDS011;11719;51.052;6.982;2023-08-06T06:10:37;0.87;;;0.60;;
16242;SDS011;11719;51.052;6.982;2023-08-06T06:13:02;1.03;;;0.90;;
16242;SDS011;11719;51.052;6.982;2023-08-06T06:15:28;0.90;;;0.50;;
16242;SDS011;11719;51.052;6.982;2023-08-06T06:17:54;1.33;;;0.73;;
16242;SDS011;11719;51.052;6.982;2023-08-06T06:20:20;1.30;;;0.73;;
16242;SDS011;11719;51.052;6.982;2023-08-06T06:22:45;2.00;;;0.80;;
16242;SDS011;11719;51.052;6.982;2023-08-06T06:25:11;3.07;;;0.57;;
16242;SDS011;11719;51.052;6.982;2023-08-06T06:27:37;1.57;;;0.90;;
16242;SDS011;11719;51.052;6.982;2023-08-06T06:30:03;0.83;;;0.50;;
16242;SDS011;11719;51.052;6.982;2023-08-06T06:32:29;1.23;;;0.90;;
16242;SDS011;11719;51.052;6.982;2023-08-06T06:34:55;1.10;;;0.70;;
16242;SDS011;11719;51.052;6.982;2023-08-06T06:37:21;0.93;;;0.60;;
16242;SDS011;11719;51.052;6.982;2023-08-06T06:39:46;0.80;;;0.77;;
16242;SDS011;11719;51.052;6.982;2023-08-06T06:42:12;1.30;;;0.70;;
16242;SDS011;11719;51.052;6.982;2023-08-06T06:44:40;1.40;;;0.93;;
16242;SDS011;11719;51.052;6.982;2023-08-06T06:47:05;0.93;;;0.70;;
16242;SDS011;11719;51.052;6.982;2023-08-06T06:49:31;0.90;;;0.60;;
16242;SDS011;11719;51.052;6.982;2023-08-06T06:51:57;0.93;;;0.70;;
16242;SDS011;11719;51.052;6.982;2023-08-06T06:54:23;0.90;;;0.80;;
16242;SDS011;11719;51.052;6.982;2023-08-06T06:56:48;0.90;;;0.57;;
16242;SDS011;11719;51.052;6.982;2023-08-06T06:59:14;1.00;;;0.83;;
16242;SDS011;11719;51.052;6.982;2023-08-06T07:01:40;1.67;;;0.70;;
16242;SDS011;11719;51.052;6.982;2023-08-06T07:04:06;0.67;;;0.57;;
16242;SDS011;11719;51.052;6.982;2023-08-06T07:06:31;1.10;;;0.90;;
16242;SDS011;11719;51.052;6.982;2023-08-06T07:08:57;1.37;;;0.77;;
16242;SDS011;11719;51.052;6.982;2023-08-06T07:11:23;2.33;;;1.10;;
16242;SDS011;11719;51.052;6.982;2023-08-06T07:13:49;1.53;;;0.83;;
16242;SDS011;11719;51.052;6.982;2023-08-06T07:16:21;1.93;;;1.10;;
16242;SDS011;11719;51.052;6.982;2023-08-06T07:18:47;1.10;;;0.53;;
16242;SDS011;11719;51.052;6.982;2023-08-06T07:21:13;1.07;;;0.70;;
16242;SDS011;11719;51.052;6.982;2023-08-06T07:23:39;1.93;;;1.10;;
16242;SDS011;11719;51.052;6.982;2023-08-06T07:26:04;5.43;;;1.10;;
16242;SDS011;11719;51.052;6.982;2023-08-06T07:28:30;2.43;;;0.90;;
16242;SDS011;11719;51.052;6.982;2023-08-06T07:30:56;2.03;;;1.30;;
16242;SDS011;11719;51.052;6.982;2023-08-06T07:33:22;1.50;;;1.20;;
16242;SDS011;11719;51.052;6.982;2023-08-06T07:35:47;2.67;;;1.47;;
16242;SDS011;11719;51.052;6.982;2023-08-06T07:38:13;1.60;;;1.30;;
16242;SDS011;11719;51.052;6.982;2023-08-06T07:40:40;1.70;;;1.13;;
16242;SDS011;11719;51.052;6.982;2023-08-06T07:43:05;2.57;;;1.70;;
16242;SDS011;11719;51.052;6.982;2023-08-06T07:45:34;5.10;;;1.90;;
16242;SDS011;11719;51.052;6.982;2023-08-06T07:48:01;2.33;;;1.40;;
16242;SDS011;11719;51.052;6.982;2023-08-06T07:50:27;2.97;;;1.50;;
16242;SDS011;11719;51.052;6.982;2023-08-06T07:52:53;1.83;;;1.53;;
16242;SDS011;11719;51.052;6.982;2023-08-06T07:55:18;2.37;;;1.50;;
16242;SDS011;11719;51.052;6.982;2023-08-06T07:57:44;2.13;;;1.47;;
16242;SDS011;11719;51.052;6.982;2023-08-06T08:00:10;1.10;;;1.00;;
16242;SDS011;11719;51.052;6.982;2023-08-06T08:02:36;3.50;;;1.23;;
16242;SDS011;11719;51.052;6.982;2023-08-06T08:05:02;1.93;;;1.40;;
16242;SDS011;11719;51.052;6.982;2023-08-06T08:07:28;1.87;;;1.40;;
16242;SDS011;11719;51.052;6.982;2023-08-06T08:09:55;1.70;;;1.40;;
16242;SDS011;11719;51.052;6.982;2023-08-06T08:12:21;1.53;;;1.40;;
16242;SDS011;11719;51.052;6.982;2023-08-06T08:14:47;1.63;;;1.40;;
16242;SDS011;11719;51.052;6.982;2023-08-06T08:17:13;1.63;;;1.10;;
16242;SDS011;11719;51.052;6.982;2023-08-06T08:19:43;2.00;;;1.07;;
16242;SDS011;11719;51.052;6.982;2023-08-06T08:22:09;1.83;;;1.50;;
16242;SDS011;11719;51.052;6.982;2023-08-06T08:24:34;2.87;;;1.20;;
16242;SDS011;11719;51.052;6.982;2023-08-06T08:27:00;1.27;;;1.13;;
16242;SDS011;11719;51.052;6.982;2023-08-06T08:29:26;2.20;;;1.30;;
16242;SDS011;11719;51.052;6.982;2023-08-06T08:31:52;1.90;;;1.50;;
16242;SDS011;11719;51.052;6.982;2023-08-06T08:34:17;1.57;;;1.10;;
16242;SDS011;11719;51.052;6.982;2023-08-06T08:36:43;2.17;;;1.30;;
16242;SDS011;11719;51.052;6.982;2023-08-06T08:39:12;1.57;;;1.30;;
16242;SDS011;11719;51.052;6.982;2023-08-06T08:41:39;1.40;;;1.10;;
16242;SDS011;11719;51.052;6.982;2023-08-06T08:44:07;1.63;;;1.30;;
16242;SDS011;11719;51.052;6.982;2023-08-06T08:46:38;2.57;;;1.27;;
16242;SDS011;11719;51.052;6.982;2023-08-06T08:49:06;3.03;;;1.43;;
16242;SDS011;11719;51.052;6.982;2023-08-06T08:51:33;1.30;;;1.17;;
16242;SDS011;11719;51.052;6.982;2023-08-06T08:54:06;1.50;;;1.20;;
16242;SDS011;11719;51.052;6.982;2023-08-06T08:56:33;1.73;;;1.20;;
16242;SDS011;11719;51.052;6.982;2023-08-06T08:58:59;2.23;;;1.03;;
16242;SDS011;11719;51.052;6.982;2023-08-06T09:01:26;1.30;;;1.20;;
16242;SDS011;11719;51.052;6.982;2023-08-06T09:03:54;1.90;;;1.70;;
16242;SDS011;11719;51.052;6.982;2023-08-06T09:06:23;2.17;;;1.20;;
16242;SDS011;11719;51.052;6.982;2023-08-06T09:09:15;3.00;;;1.60;;
16242;SDS011;11719;51.052;6.982;2023-08-06T09:11:43;2.93;;;2.07;;
16242;SDS011;11719;51.052;6.982;2023-08-06T09:14:09;2.57;;;2.10;;
16242;SDS011;11719;51.052;6.982;2023-08-06T09:16:37;3.73;;;2.27;;
16242;SDS011;11719;51.052;6.982;2023-08-06T09:19:07;2.03;;;1.50;;
16242;SDS011;11719;51.052;6.982;2023-08-06T09:21:42;2.43;;;2.00;;
16242;SDS011;11719;51.052;6.982;2023-08-06T09:24:11;2.13;;;1.93;;
16242;SDS011;11719;51.052;6.982;2023-08-06T09:26:41;2.33;;;1.50;;
16242;SDS011;11719;51.052;6.982;2023-08-06T09:29:09;1.60;;;1.13;;
16242;SDS011;11719;51.052;6.982;2023-08-06T09:34:17;1.60;;;1.20;;
16242;SDS011;11719;51.052;6.982;2023-08-06T09:36:53;2.03;;;1.50;;
16242;SDS011;11719;51.052;6.982;2023-08-06T09:39:20;2.73;;;1.50;;
16242;SDS011;11719;51.052;6.982;2023-08-06T09:41:58;1.90;;;1.20;;
16242;SDS011;11719;51.052;6.982;2023-08-06T09:44:26;2.13;;;1.87;;
16242;SDS011;11719;51.052;6.982;2023-08-06T09:46:55;2.03;;;1.60;;
16242;SDS011;11719;51.052;6.982;2023-08-06T09:49:28;1.90;;;1.70;;
16242;SDS011;11719;51.052;6.982;2023-08-06T09:51:57;1.70;;;1.27;;
16242;SDS011;11719;51.052;6.982;2023-08-06T09:54:24;2.00;;;1.47;;
16242;SDS011;11719;51.052;6.982;2023-08-06T09:56:55;2.13;;;2.03;;
16242;SDS011;11719;51.052;6.982;2023-08-06T09:59:24;2.60;;;1.60;;
16242;SDS011;11719;51.052;6.982;2023-08-06T10:01:50;3.97;;;2.20;;
16242;SDS011;11719;51.052;6.982;2023-08-06T10:04:16;3.20;;;1.90;;
16242;SDS011;11719;51.052;6.982;2023-08-06T10:06:43;3.30;;;1.40;;
16242;SDS011;11719;51.052;6.982;2023-08-06T10:09:13;4.07;;;1.50;;
16242;SDS011;11719;51.052;6.982;2023-08-06T10:11:39;1.97;;;0.83;;
16242;SDS011;11719;51.052;6.982;2023-08-06T10:14:11;0.50;;;0.47;;
16242;SDS011;11719;51.052;6.982;2023-08-06T10:16:41;0.20;;;0.20;;
16242;SDS011;11719;51.052;6.982;2023-08-06T10:19:09;0.70;;;0.70;;
16242;SDS011;11719;51.052;6.982;2023-08-06T10:21:40;2.03;;;0.60;;
16242;SDS011;11719;51.052;6.982;2023-08-06T10:24:08;1.00;;;0.60;;
16242;SDS011;11719;51.052;6.982;2023-08-06T10:26:35;0.97;;;0.30;;
16242;SDS011;11719;51.052;6.982;2023-08-06T10:29:01;0.10;;;0.10;;
16242;SDS011;11719;51.052;6.982;2023-08-06T10:32:00;0.10;;;0.10;;
16242;SDS011;11719;51.052;6.982;2023-08-06T10:34:46;1.37;;;0.20;;
16242;SDS011;11719;51.052;6.982;2023-08-06T10:37:22;1.90;;;0.20;;
16242;SDS011;11719;51.052;6.982;2023-08-06T10:39:50;0.20;;;0.20;;
16242;SDS011;11719;51.052;6.982;2023-08-06T10:42:26;0.30;;;0.30;;
16242;SDS011;11719;51.052;6.982;2023-08-06T10:45:10;0.30;;;0.27;;
16242;SDS011;11719;51.052;6.982;2023-08-06T10:47:38;0.47;;;0.40;;
16242;SDS011;11719;51.052;6.982;2023-08-06T10:50:04;1.37;;;0.70;;
16242;SDS011;11719;51.052;6.982;2023-08-06T10:52:37;0.87;;;0.57;;
16242;SDS011;11719;51.052;6.982;2023-08-06T10:55:03;0.80;;;0.70;;
16242;SDS011;11719;51.052;6.982;2023-08-06T10:57:29;1.10;;;0.60;;
16242;SDS011;11719;51.052;6.982;2023-08-06T10:59:55;2.20;;;0.43;;
16242;SDS011;11719;51.052;6.982;2023-08-06T11:02:21;0.40;;;0.40;;
16242;SDS011;11719;51.052;6.982;2023-08-06T11:04:47;1.03;;;0.50;;
16242;SDS011;11719;51.052;6.982;2023-08-06T11:07:13;0.60;;;0.37;;
16242;SDS011;11719;51.052;6.982;2023-08-06T11:09:39;0.20;;;0.20;;
16242;SDS011;11719;51.052;6.982;2023-08-06T11:12:11;0.23;;;0.20;;
16242;SDS011;11719;51.052;6.982;2023-08-06T11:14:49;0.87;;;0.40;;
16242;SDS011;11719;51.052;6.982;2023-08-06T11:17:15;1.60;;;0.50;;
16242;SDS011;11719;51.052;6.982;2023-08-06T11:19:41;0.70;;;0.63;;
16242;SDS011;11719;51.052;6.982;2023-08-06T11:22:07;0.87;;;0.50;;
16242;SDS011;11719;51.052;6.982;2023-08-06T11:24:33;1.10;;;0.70;;
16242;SDS011;11719;51.052;6.982;2023-08-06T11:26:58;0.50;;;0.40;;
16242;SDS011;11719;51.052;6.982;2023-08-06T11:29:24;1.00;;;0.70;;
16242;SDS011;11719;51.052;6.982;2023-08-06T11:31:51;1.07;;;0.70;;
16242;SDS011;11719;51.052;6.982;2023-08-06T11:34:16;1.13;;;0.80;;
16242;SDS011;11719;51.052;6.982;2023-08-06T11:36:42;2.83;;;0.70;;
16242;SDS011;11719;51.052;6.982;2023-08-06T11:39:08;1.23;;;0.80;;
16242;SDS011;11719;51.052;6.982;2023-08-06T11:41:35;1.33;;;0.80;;
16242;SDS011;11719;51.052;6.982;2023-08-06T11:44:03;1.93;;;0.90;;
16242;SDS011;11719;51.052;6.982;2023-08-06T11:46:29;1.07;;;0.90;;
16242;SDS011;11719;51.052;6.982;2023-08-06T11:49:14;1.50;;;0.90;;
16242;SDS011;11719;51.052;6.982;2023-08-06T11:51:40;2.13;;;0.80;;
16242;SDS011;11719;51.052;6.982;2023-08-06T11:54:06;10.60;;;0.77;;
16242;SDS011;11719;51.052;6.982;2023-08-06T11:56:33;2.37;;;0.80;;
16242;SDS011;11719;51.052;6.982;2023-08-06T11:59:00;1.43;;;1.07;;
16242;SDS011;11719;51.052;6.982;2023-08-06T12:01:26;1.77;;;0.97;;
16242;SDS011;11719;51.052;6.982;2023-08-06T12:03:57;0.80;;;0.57;;
16242;SDS011;11719;51.052;6.982;2023-08-06T12:06:27;1.23;;;0.70;;
16242;SDS011;11719;51.052;6.982;2023-08-06T12:08:53;1.67;;;1.20;;
16242;SDS011;11719;51.052;6.982;2023-08-06T12:11:20;1.17;;;0.77;;
16242;SDS011;11719;51.052;6.982;2023-08-06T12:13:50;1.33;;;0.90;;
16242;SDS011;11719;51.052;6.982;2023-08-06T12:16:16;1.17;;;0.87;;
16242;SDS011;11719;51.052;6.982;2023-08-06T12:18:44;2.43;;;0.80;;
16242;SDS011;11719;51.052;6.982;2023-08-06T12:21:10;2.90;;;1.20;;
16242;SDS011;11719;51.052;6.982;2023-08-06T12:23:36;1.97;;;0.93;;
16242;SDS011;11719;51.052;6.982;2023-08-06T12:26:01;0.67;;;0.60;;
16242;SDS011;11719;51.052;6.982;2023-08-06T12:28:27;1.33;;;0.87;;
16242;SDS011;11719;51.052;6.982;2023-08-06T12:30:53;2.13;;;1.00;;
16242;SDS011;11719;51.052;6.982;2023-08-06T12:33:20;2.67;;;1.00;;
16242;SDS011;11719;51.052;6.982;2023-08-06T12:35:46;1.70;;;1.03;;
16242;SDS011;11719;51.052;6.982;2023-08-06T12:38:11;2.93;;;1.00;;
16242;SDS011;11719;51.052;6.982;2023-08-06T12:40:38;0.87;;;0.70;;
16242;SDS011;11719;51.052;6.982;2023-08-06T12:43:05;1.37;;;1.10;;
16242;SDS011;11719;51.052;6.982;2023-08-06T12:45:31;1.37;;;0.67;;
16242;SDS011;11719;51.052;6.982;2023-08-06T12:47:57;1.40;;;0.80;;
16242;SDS011;11719;51.052;6.982;2023-08-06T12:50:23;1.97;;;1.00;;
16242;SDS011;11719;51.052;6.982;2023-08-06T12:52:48;0.50;;;0.50;;
16242;SDS011;11719;51.052;6.982;2023-08-06T12:55:14;1.50;;;0.70;;
16242;SDS011;11719;51.052;6.982;2023-08-06T12:57:40;1.93;;;1.00;;
16242;SDS011;11719;51.052;6.982;2023-08-06T13:00:06;1.83;;;0.70;;
16242;SDS011;11719;51.052;6.982;2023-08-06T13:02:32;1.43;;;0.80;;
16242;SDS011;11719;51.052;6.982;2023-08-06T13:04:58;1.40;;;0.60;;
16242;SDS011;11719;51.052;6.982;2023-08-06T13:07:24;1.57;;;1.17;;
16242;SDS011;11719;51.052;6.982;2023-08-06T13:09:50;1.77;;;1.33;;
16242;SDS011;11719;51.052;6.982;2023-08-06T13:12:16;1.43;;;1.00;;
16242;SDS011;11719;51.052;6.982;2023-08-06T13:14:44;1.73;;;0.90;;
16242;SDS011;11719;51.052;6.982;2023-08-06T13:17:09;1.93;;;0.90;;
16242;SDS011;11719;51.052;6.982;2023-08-06T13:19:35;1.30;;;0.80;;
16242;SDS011;11719;51.052;6.982;2023-08-06T13:22:02;2.07;;;0.90;;
16242;SDS011;11719;51.052;6.982;2023-08-06T13:24:30;2.57;;;0.80;;
16242;SDS011;11719;51.052;6.982;2023-08-06T13:26:56;1.53;;;0.63;;
16242;SDS011;11719;51.052;6.982;2023-08-06T13:29:22;1.27;;;0.67;;
16242;SDS011;11719;51.052;6.982;2023-08-06T13:31:48;1.07;;;0.67;;
16242;SDS011;11719;51.052;6.982;2023-08-06T13:34:14;2.23;;;0.60;;
16242;SDS011;11719;51.052;6.982;2023-08-06T13:36:41;1.03;;;0.70;;
16242;SDS011;11719;51.052;6.982;2023-08-06T13:39:07;1.53;;;0.90;;
16242;SDS011;11719;51.052;6.982;2023-08-06T13:41:33;1.57;;;0.80;;
16242;SDS011;11719;51.052;6.982;2023-08-06T13:43:59;1.67;;;0.73;;
16242;SDS011;11719;51.052;6.982;2023-08-06T13:46:25;1.20;;;0.90;;
16242;SDS011;11719;51.052;6.982;2023-08-06T13:48:50;1.70;;;0.50;;
16242;SDS011;11719;51.052;6.982;2023-08-06T13:51:16;1.00;;;0.83;;
16242;SDS011;11719;51.052;6.982;2023-08-06T13:53:42;1.17;;;0.67;;
16242;SDS011;11719;51.052;6.982;2023-08-06T13:56:09;2.57;;;0.73;;
16242;SDS011;11719;51.052;6.982;2023-08-06T13:58:36;1.07;;;0.70;;
16242;SDS011;11719;51.052;6.982;2023-08-06T14:01:02;2.67;;;0.73;;
16242;SDS011;11719;51.052;6.982;2023-08-06T14:03:28;1.10;;;0.53;;
16242;SDS011;11719;51.052;6.982;2023-08-06T14:05:54;1.13;;;0.70;;
16242;SDS011;11719;51.052;6.982;2023-08-06T14:08:25;1.90;;;1.03;;
16242;SDS011;11719;51.052;6.982;2023-08-06T14:10:51;1.83;;;1.10;;
16242;SDS011;11719;51.052;6.982;2023-08-06T14:13:17;1.10;;;0.80;;
16242;SDS011;11719;51.052;6.982;2023-08-06T14:15:43;1.20;;;0.70;;
16242;SDS011;11719;51.052;6.982;2023-08-06T14:18:12;1.27;;;0.80;;
16242;SDS011;11719;51.052;6.982;2023-08-06T14:20:39;0.87;;;0.77;;
16242;SDS011;11719;51.052;6.982;2023-08-06T14:23:06;1.37;;;0.90;;
16242;SDS011;11719;51.052;6.982;2023-08-06T14:25:32;2.73;;;0.80;;
16242;SDS011;11719;51.052;6.982;2023-08-06T14:27:58;2.03;;;1.10;;
16242;SDS011;11719;51.052;6.982;2023-08-06T14:30:24;1.53;;;0.70;;
16242;SDS011;11719;51.052;6.982;2023-08-06T14:32:50;1.53;;;0.70;;
16242;SDS011;11719;51.052;6.982;2023-08-06T14:35:15;1.27;;;0.80;;
16242;SDS011;11719;51.052;6.982;2023-08-06T14:37:41;1.00;;;0.77;;
16242;SDS011;11719;51.052;6.982;2023-08-06T14:40:07;3.73;;;1.00;;
16242;SDS011;11719;51.052;6.982;2023-08-06T14:42:34;1.27;;;0.80;;
16242;SDS011;11719;51.052;6.982;2023-08-06T14:45:00;1.13;;;0.70;;
16242;SDS011;11719;51.052;6.982;2023-08-06T14:47:25;2.63;;;0.90;;
16242;SDS011;11719;51.052;6.982;2023-08-06T14:49:51;1.77;;;1.00;;
16242;SDS011;11719;51.052;6.982;2023-08-06T14:52:17;0.67;;;0.60;;
16242;SDS011;11719;51.052;6.982;2023-08-06T14:54:43;2.53;;;0.70;;
16242;SDS011;11719;51.052;6.982;2023-08-06T14:57:09;0.80;;;0.67;;